createdAt,value
2022-11-30T00:01:49.997Z,5.25
2022-11-30T00:06:53.641Z,1.40
2022-11-30T00:11:57.192Z,2.13
2022-11-30T00:17:02.428Z,3.35
2022-11-30T00:22:06.103Z,3.07
2022-11-30T00:27:09.791Z,1.60
2022-11-30T00:32:14.962Z,2.78
2022-11-30T00:37:18.500Z,3.08
2022-11-30T00:42:22.134Z,3.08
2022-11-30T00:47:27.476Z,2.40
2022-11-30T00:52:31.442Z,4.53
2022-11-30T00:57:35.048Z,3.08
2022-11-30T01:02:41.270Z,4.85
2022-11-30T01:07:44.942Z,11.10
2022-11-30T01:12:48.548Z,2.97
2022-11-30T01:17:53.803Z,1.98
2022-11-30T01:22:57.560Z,2.10
2022-11-30T01:28:01.133Z,2.65
2022-11-30T01:33:06.734Z,5.68
2022-11-30T01:38:10.285Z,7.63
2022-11-30T01:43:14.124Z,3.05
2022-11-30T01:48:19.327Z,2.55
2022-11-30T01:53:23.950Z,2.75
2022-11-30T01:58:30.886Z,4.70
2022-11-30T02:03:40.708Z,2.55
2022-11-30T02:08:44.565Z,3.83
2022-11-30T02:14:14.517Z,2.55
2022-11-30T02:19:54.098Z,3.22
2022-11-30T02:25:09.186Z,2.83
2022-11-30T02:30:17.332Z,3.50
2022-11-30T02:35:25.799Z,1.98
2022-11-30T02:40:29.565Z,4.07
2022-11-30T02:45:38.939Z,5.00
2022-11-30T02:50:46.631Z,3.22
2022-11-30T02:55:50.248Z,3.75
2022-11-30T03:00:55.448Z,4.93
2022-11-30T03:05:59.032Z,3.38
2022-11-30T03:11:03.832Z,3.95
2022-11-30T03:16:11.323Z,3.40
2022-11-30T03:21:14.969Z,2.55
2022-11-30T03:26:18.627Z,2.30
2022-11-30T03:31:23.827Z,2.90
2022-11-30T03:36:27.379Z,4.40
2022-11-30T03:41:31.254Z,3.40
2022-11-30T03:46:36.478Z,3.47
2022-11-30T03:51:40.032Z,3.53
2022-11-30T03:56:43.573Z,3.17
2022-11-30T04:01:48.877Z,2.25
2022-11-30T04:06:52.501Z,1.75
2022-11-30T04:11:56.292Z,3.53
2022-11-30T04:17:01.481Z,2.35
2022-11-30T04:22:05.046Z,2.33
2022-11-30T04:27:08.609Z,3.10
2022-11-30T04:32:13.783Z,3.45
2022-11-30T04:37:17.410Z,3.88
2022-11-30T04:42:20.962Z,3.03
2022-11-30T04:47:26.176Z,4.63
2022-11-30T04:52:29.739Z,2.35
2022-11-30T04:57:33.382Z,3.08
2022-11-30T05:02:38.593Z,2.50
2022-11-30T05:07:42.181Z,2.58
2022-11-30T05:12:45.760Z,2.38
2022-11-30T05:17:50.964Z,2.38
2022-11-30T05:22:54.499Z,2.47
2022-11-30T05:27:58.068Z,2.97
2022-11-30T05:33:03.261Z,4.30
2022-11-30T05:38:06.956Z,4.82
2022-11-30T05:43:11.070Z,3.10
2022-11-30T05:48:16.307Z,3.17
2022-11-30T05:53:19.919Z,6.28
2022-11-30T05:58:26.277Z,2.72
2022-11-30T06:03:32.301Z,4.07
2022-11-30T06:08:35.856Z,3.85
2022-11-30T06:13:40.532Z,3.97
2022-11-30T06:18:46.617Z,3.60
2022-11-30T06:23:50.157Z,4.38
2022-11-30T06:28:53.884Z,3.05
2022-11-30T06:33:59.927Z,4.72
2022-11-30T06:39:03.865Z,3.08
2022-11-30T06:44:09.724Z,3.88
2022-11-30T06:49:14.956Z,3.93
2022-11-30T06:54:18.567Z,3.22
2022-11-30T06:59:22.117Z,4.50
2022-11-30T07:04:27.345Z,3.38
2022-11-30T07:09:31.632Z,4.05
2022-11-30T07:14:35.255Z,3.42
2022-11-30T07:19:40.441Z,5.07
2022-11-30T07:24:43.982Z,4.45
2022-11-30T07:29:47.528Z,3.80
2022-11-30T07:34:52.704Z,4.03
2022-11-30T07:39:56.344Z,3.83
2022-11-30T07:45:00.100Z,2.55
2022-11-30T07:50:06.056Z,2.50
2022-11-30T07:55:10.381Z,2.93
2022-11-30T08:00:14.744Z,3.08
2022-11-30T08:05:20.091Z,2.97
2022-11-30T08:10:24.429Z,2.92
2022-11-30T08:15:32.376Z,2.58
2022-11-30T08:20:38.305Z,2.90
2022-11-30T08:25:41.852Z,3.20
2022-11-30T08:30:45.669Z,3.60
2022-11-30T08:35:50.927Z,2.67
2022-11-30T08:40:58.627Z,2.17
2022-11-30T08:46:21.252Z,2.47
2022-11-30T08:51:47.483Z,3.97
2022-11-30T08:56:53.850Z,2.92
2022-11-30T09:01:57.415Z,3.92
2022-11-30T09:07:02.601Z,3.30
2022-11-30T09:12:07.020Z,3.33
2022-11-30T09:17:10.795Z,4.22
2022-11-30T09:22:15.996Z,4.15
2022-11-30T09:27:19.575Z,3.30
2022-11-30T09:32:23.154Z,2.83
2022-11-30T09:37:28.357Z,3.00
2022-11-30T09:42:44.306Z,2.20
2022-11-30T09:48:11.767Z,2.40
2022-11-30T09:53:28.961Z,4.82
2022-11-30T09:58:44.672Z,2.45
2022-11-30T10:03:48.725Z,3.45
2022-11-30T10:09:15.247Z,3.75
2022-11-30T10:14:58.629Z,3.28
2022-11-30T10:20:21.499Z,2.67
2022-11-30T10:25:33.820Z,2.78
2022-11-30T10:30:38.534Z,2.00
2022-11-30T10:35:44.119Z,1.60
2022-11-30T10:40:53.447Z,2.92
2022-11-30T10:45:57.359Z,1.90
2022-11-30T10:51:03.292Z,2.08
2022-11-30T10:56:12.208Z,1.70
2022-11-30T11:01:32.158Z,3.30
2022-11-30T11:06:36.647Z,2.00
2022-11-30T11:11:42.085Z,3.00
2022-11-30T11:16:54.630Z,3.97
2022-11-30T11:21:58.345Z,1.85
2022-11-30T11:27:03.676Z,3.28
2022-11-30T11:32:24.172Z,2.40
2022-11-30T11:37:29.400Z,3.33
2022-11-30T11:42:37.376Z,1.88
2022-11-30T11:47:44.468Z,2.75
2022-11-30T11:52:48.081Z,3.15
2022-11-30T11:57:57.912Z,4.25
2022-11-30T12:03:09.401Z,2.92
2022-11-30T12:08:17.999Z,3.17
2022-11-30T12:13:27.914Z,2.72
2022-11-30T12:18:38.382Z,3.47
2022-11-30T12:24:18.042Z,4.22
2022-11-30T12:29:26.223Z,2.60
2022-11-30T12:34:43.867Z,2.78
2022-11-30T12:39:57.851Z,1.95
2022-11-30T12:45:15.679Z,3.55
2022-11-30T12:50:30.792Z,2.83
2022-11-30T12:55:41.084Z,2.95
2022-11-30T13:00:58.538Z,3.65
2022-11-30T13:06:07.979Z,4.03
2022-11-30T13:11:18.199Z,2.63
2022-11-30T13:16:25.568Z,2.95
2022-11-30T13:21:34.030Z,3.97
2022-11-30T13:26:45.314Z,2.50
2022-11-30T13:31:57.421Z,3.50
2022-11-30T13:37:06.824Z,2.08
2022-11-30T13:42:49.002Z,3.13
2022-11-30T13:47:57.951Z,2.58
2022-11-30T13:53:31.185Z,1.77
2022-11-30T13:58:35.705Z,3.20
2022-11-30T14:03:41.764Z,2.72
2022-11-30T14:08:45.390Z,3.70
2022-11-30T14:13:49.744Z,2.38
2022-11-30T14:18:56.498Z,3.20
2022-11-30T14:24:04.521Z,3.78
2022-11-30T14:29:17.174Z,3.25
2022-11-30T14:34:25.663Z,4.68
2022-11-30T14:39:34.472Z,2.25
2022-11-30T14:44:41.175Z,3.55
2022-11-30T14:55:03.009Z,2.60
2022-11-30T15:00:07.731Z,2.78
2022-11-30T15:05:16.866Z,3.30
2022-11-30T15:10:29.719Z,5.97
2022-11-30T15:15:36.170Z,5.55
2022-11-30T15:20:51.728Z,3.38
2022-11-30T15:25:59.575Z,4.72
2022-11-30T15:31:07.316Z,5.10
2022-11-30T15:36:27.779Z,5.43
2022-11-30T15:41:36.967Z,6.88
2022-11-30T15:46:54.965Z,3.58
2022-11-30T15:52:05.834Z,4.57
2022-11-30T15:57:09.521Z,3.38
2022-11-30T16:02:32.689Z,6.05
2022-11-30T16:07:40.087Z,3.85
2022-11-30T16:12:44.696Z,4.72
2022-11-30T16:17:48.269Z,7.90
2022-11-30T16:22:53.754Z,4.80
2022-11-30T16:27:57.331Z,4.47
2022-11-30T16:33:00.918Z,5.68
2022-11-30T16:38:06.089Z,6.25
2022-11-30T16:43:11.852Z,6.47
2022-11-30T16:48:15.445Z,3.53
2022-11-30T16:53:22.788Z,5.78
2022-11-30T16:58:28.447Z,5.20
2022-11-30T17:03:34.767Z,8.18
2022-11-30T17:08:39.987Z,5.43
2022-11-30T17:13:43.630Z,6.20
2022-11-30T17:18:47.199Z,9.57
2022-11-30T17:23:52.520Z,6.20
2022-11-30T17:28:56.734Z,7.80
2022-11-30T17:34:00.396Z,8.18
2022-11-30T17:39:08.241Z,8.75
2022-11-30T17:44:11.967Z,6.18
2022-11-30T17:49:15.557Z,10.85
2022-11-30T17:54:20.761Z,8.20
2022-11-30T17:59:24.388Z,9.75
2022-11-30T18:04:28.764Z,9.90
2022-11-30T18:09:39.266Z,6.78
2022-11-30T18:14:46.963Z,12.70
2022-11-30T18:19:50.890Z,11.70
2022-11-30T18:24:56.234Z,9.20
2022-11-30T18:30:00.206Z,12.52
2022-11-30T18:35:03.813Z,8.65
2022-11-30T18:40:10.177Z,9.77
2022-11-30T18:50:16.693Z,8.40
2022-11-30T18:55:22.010Z,11.30
2022-11-30T19:00:25.911Z,8.32
2022-11-30T19:05:29.512Z,7.40
2022-11-30T19:10:35.992Z,9.30
2022-11-30T19:15:40.416Z,6.20
2022-11-30T19:20:43.965Z,7.07
2022-11-30T19:25:50.067Z,4.03
2022-11-30T19:30:53.737Z,6.40
2022-11-30T19:36:01.519Z,7.03
2022-11-30T19:41:08.820Z,6.45
2022-11-30T19:46:13.708Z,3.90
2022-11-30T19:51:18.798Z,3.53
2022-11-30T19:56:27.237Z,1.83
2022-11-30T20:01:31.054Z,3.47
2022-11-30T20:06:36.633Z,4.95
2022-11-30T20:11:41.848Z,1.97
2022-11-30T20:16:45.430Z,4.78
2022-11-30T20:21:49.033Z,4.60
2022-11-30T20:26:54.241Z,4.18
2022-11-30T20:31:58.210Z,1.92
2022-11-30T20:37:01.795Z,3.05
2022-11-30T20:42:07.084Z,4.97
2022-11-30T20:47:10.671Z,2.70
2022-11-30T20:52:14.245Z,4.38
2022-11-30T20:57:19.443Z,3.83
2022-11-30T21:02:23.041Z,2.93
2022-11-30T21:07:26.645Z,3.00
2022-11-30T21:12:32.222Z,3.15
2022-11-30T21:17:36.203Z,3.77
2022-11-30T21:22:39.775Z,1.33
2022-11-30T21:27:45.011Z,3.83
2022-11-30T21:32:48.583Z,10.53
2022-11-30T21:37:52.167Z,2.00
2022-11-30T21:42:57.359Z,1.95
2022-11-30T21:48:00.926Z,1.93
2022-11-30T21:53:04.553Z,5.50
2022-11-30T21:58:09.747Z,1.65
2022-11-30T22:03:18.110Z,2.00
2022-11-30T22:08:22.915Z,6.07
2022-11-30T22:13:29.624Z,4.38
2022-11-30T22:18:33.346Z,3.15
2022-11-30T22:23:38.038Z,4.47
2022-11-30T22:28:44.376Z,3.90
2022-11-30T22:33:48.194Z,2.08
2022-11-30T22:38:55.925Z,2.55
2022-11-30T22:44:01.185Z,1.95
2022-11-30T22:49:07.323Z,3.67
2022-11-30T22:59:16.167Z,2.47
2022-11-30T23:09:24.688Z,1.25
2022-11-30T23:14:29.919Z,2.05
2022-11-30T23:19:33.476Z,3.80
2022-11-30T23:24:37.140Z,3.65
2022-11-30T23:29:42.336Z,0.95
2022-11-30T23:34:50.479Z,3.13
2022-11-30T23:39:54.283Z,2.78
2022-11-30T23:44:59.451Z,2.90
2022-11-30T23:50:03.001Z,1.93
2022-11-30T23:55:07.679Z,2.08
